Time;durP1;ratioP1;P1;durP2;ratioP2;P2;SDS_P1;SDS_P2;PMS_P1;PMS_P2;Temp;Humidity;BMP_temperature;BMP_pressure;BME280_temperature;BME280_humidity;BME280_pressure;Samples;Min_cycle;Max_cycle;Signal;HPM_P1;HPM_P2
2023/07/20 00:00:17;;;;;;;12.13;10.95;;;;;;;-141.84;90.50;20689.88;5023852;28;20317;-65
2023/07/20 00:02:45;;;;;;;11.55;10.38;;;;;;;-141.84;90.54;20655.31;5023037;28;20297;-66
2023/07/20 00:05:14;;;;;;;11.30;10.32;;;;;;;-141.84;90.55;20693.94;5016127;28;20749;-66
2023/07/20 00:07:42;;;;;;;9.93;9.02;;;;;;;-141.84;90.85;20663.47;5024097;28;20328;-65
2023/07/20 00:10:12;;;;;;;10.85;9.85;;;;;;;-141.84;90.03;20663.47;5024131;28;20222;-65
2023/07/20 00:12:41;;;;;;;10.63;9.77;;;;;;;-141.84;90.30;20683.78;5024179;28;20222;-66
2023/07/20 00:15:10;;;;;;;10.60;9.50;;;;;;;-141.84;89.72;20637.03;5015807;28;20305;-65
2023/07/20 00:17:39;;;;;;;9.65;8.75;;;;;;;-141.84;88.81;20667.53;5004976;28;20241;-66
2023/07/20 00:20:09;;;;;;;8.50;7.75;;;;;;;-141.84;88.98;20647.19;5008390;28;20234;-66
2023/07/20 00:22:38;;;;;;;8.93;8.05;;;;;;;-141.84;90.25;20667.53;5008690;28;20265;-66
2023/07/20 00:25:07;;;;;;;9.02;8.23;;;;;;;-141.84;89.92;20606.53;4998476;28;20222;-65
2023/07/20 00:27:37;;;;;;;8.40;7.70;;;;;;;-141.84;88.54;20702.09;5003717;28;20313;-66
2023/07/20 00:30:06;;;;;;;8.32;7.53;;;;;;;-141.84;88.81;20653.28;5003895;28;20289;-65
2023/07/20 00:32:35;;;;;;;8.85;7.90;;;;;;;-141.84;89.23;20657.34;4983887;28;20604;-67
2023/07/20 00:35:04;;;;;;;8.18;7.50;;;;;;;-141.84;88.14;20683.78;5001434;28;20598;-65
2023/07/20 00:37:32;;;;;;;7.35;6.68;;;;;;;-141.84;88.33;20614.66;5023792;28;20665;-65
2023/07/20 00:40:02;;;;;;;8.02;7.22;;;;;;;-141.84;89.27;20647.19;5023709;28;20314;-65
2023/07/20 00:42:30;;;;;;;7.97;7.20;;;;;;;-141.84;89.60;20630.94;5022592;28;20317;-66
2023/07/20 00:45:01;;;;;;;7.45;6.75;;;;;;;-141.84;90.12;20632.97;5016408;28;20290;-65
2023/07/20 00:47:29;;;;;;;7.00;6.40;;;;;;;-141.84;90.17;20637.03;5023317;28;20256;-65
2023/07/20 00:49:58;;;;;;;7.32;6.68;;;;;;;-141.84;89.11;20606.53;5013095;28;20238;-65
2023/07/20 00:52:28;;;;;;;6.20;5.70;;;;;;;-141.84;89.32;20632.97;5006372;28;20321;-66
2023/07/20 00:54:58;;;;;;;7.38;6.57;;;;;;;-141.84;88.04;20659.38;5015505;28;20545;-65
2023/07/20 00:57:27;;;;;;;8.63;6.20;;;;;;;-141.84;87.05;20639.06;5022971;28;20242;-65
2023/07/20 00:59:56;;;;;;;6.53;5.93;;;;;;;-141.84;87.53;20667.53;5023137;28;20253;-65
2023/07/20 01:02:26;;;;;;;6.85;5.95;;;;;;;-141.84;88.31;20655.31;5022104;28;20222;-66
2023/07/20 01:04:54;;;;;;;7.30;6.60;;;;;;;-141.84;87.03;20673.63;5015130;28;20253;-65
2023/07/20 01:07:27;;;;;;;6.35;5.75;;;;;;;-141.84;87.05;20669.56;5022974;28;20785;-66
2023/07/20 01:10:03;;;;;;;6.55;5.95;;;;;;;-141.84;87.53;20624.84;5022845;28;20308;-66
2023/07/20 01:12:41;;;;;;;7.03;6.32;;;;;;;-141.84;88.11;20649.22;5014740;28;20737;-65
2023/07/20 01:15:10;;;;;;;7.82;7.13;;;;;;;-141.84;87.45;20681.75;4995285;28;20422;-65
2023/07/20 01:17:40;;;;;;;7.10;6.40;;;;;;;-141.84;87.12;20655.31;5003241;28;20207;-66
2023/07/20 01:20:13;;;;;;;7.07;6.47;;;;;;;-141.84;87.95;20679.72;5007303;28;20259;-66
2023/07/20 01:23:07;;;;;;;8.05;7.28;;;;;;;-141.84;88.50;20655.31;5002858;28;20234;-65
2023/07/20 01:25:58;;;;;;;8.27;7.55;;;;;;;-141.84;88.53;20667.53;5003228;28;20957;-66
2023/07/20 01:28:45;;;;;;;8.23;7.40;;;;;;;-141.84;87.82;20630.94;5003041;28;20240;-66
2023/07/20 01:31:25;;;;;;;8.75;7.00;;;;;;;-141.84;87.98;20671.59;4994900;28;20242;-64
2023/07/20 01:33:59;;;;;;;7.80;7.05;;;;;;;-141.84;88.01;20677.69;5003054;28;20238;-66
2023/07/20 01:36:31;;;;;;;7.60;6.68;;;;;;;-141.84;86.64;20695.97;5021573;28;20304;-65
2023/07/20 01:39:01;;;;;;;7.00;6.40;;;;;;;-141.84;86.64;20665.50;5015651;28;20214;-66
2023/07/20 01:41:30;;;;;;;7.10;6.40;;;;;;;-141.84;87.09;20635.00;5022000;28;20674;-66
2023/07/20 01:44:00;;;;;;;6.88;6.28;;;;;;;-141.84;86.57;20649.22;5022077;28;20276;-66
2023/07/20 01:46:29;;;;;;;6.43;5.72;;;;;;;-141.84;87.19;20606.53;5022590;28;20283;-66
2023/07/20 01:48:59;;;;;;;6.72;6.07;;;;;;;-141.84;87.66;20606.53;5013425;28;20726;-66
2023/07/20 01:51:27;;;;;;;6.55;5.93;;;;;;;-141.84;87.23;20626.88;5021098;28;20324;-68
2023/07/20 01:53:56;;;;;;;8.18;6.20;;;;;;;-141.84;87.25;20624.84;5022705;28;20259;-65
2023/07/20 01:56:24;;;;;;;6.30;5.70;;;;;;;-141.84;87.81;20608.56;5021856;28;20229;-65
2023/07/20 01:58:53;;;;;;;6.32;5.70;;;;;;;-141.84;87.92;20628.91;5015009;28;20257;-65
2023/07/20 02:01:21;;;;;;;6.55;5.88;;;;;;;-141.84;87.54;20612.63;5022455;28;20333;-66
2023/07/20 02:03:51;;;;;;;6.82;6.32;;;;;;;-141.84;87.83;20592.31;5022005;28;20696;-66
2023/07/20 02:06:20;;;;;;;6.00;5.35;;;;;;;-141.84;88.11;20569.94;5022071;28;20240;-66
2023/07/20 02:08:49;;;;;;;6.53;5.97;;;;;;;-141.84;87.97;20600.44;5022070;28;20666;-65
2023/07/20 02:11:17;;;;;;;6.50;5.50;;;;;;;-141.84;88.36;20561.81;5021349;28;20230;-66
2023/07/20 02:13:46;;;;;;;7.10;6.00;;;;;;;-141.84;88.89;20541.50;5022095;28;20257;-66
2023/07/20 02:16:14;;;;;;;8.98;6.88;;;;;;;-141.84;89.36;20541.50;5014151;28;20321;-65
2023/07/20 02:18:43;;;;;;;7.90;6.07;;;;;;;-141.84;89.00;20559.78;5001988;28;20234;-65
2023/07/20 02:21:13;;;;;;;6.68;6.05;;;;;;;-141.84;87.82;20582.16;5013994;28;20242;-66
2023/07/20 02:23:41;;;;;;;6.90;5.90;;;;;;;-141.84;86.30;20649.22;5022442;28;20293;-65
2023/07/20 02:26:10;;;;;;;7.28;5.63;;;;;;;-141.84;86.53;20586.22;5022368;28;20310;-66
2023/07/20 02:28:38;;;;;;;7.10;6.00;;;;;;;-141.84;85.43;20649.22;5025614;28;20312;-65
2023/07/20 02:31:06;;;;;;;5.75;5.03;;;;;;;-141.84;85.86;20643.13;5018181;28;20286;-65
2023/07/20 02:33:35;;;;;;;6.47;5.88;;;;;;;-141.84;86.27;20653.28;5025751;28;20275;-67
2023/07/20 02:36:04;;;;;;;6.10;5.60;;;;;;;-141.84;84.83;20659.38;5025545;28;20217;-66
2023/07/20 02:38:33;;;;;;;5.93;5.40;;;;;;;-141.84;84.80;20681.75;5025287;28;20272;-65
2023/07/20 02:41:02;;;;;;;8.07;5.60;;;;;;;-141.84;83.92;20693.94;5018223;28;20261;-66
2023/07/20 02:43:31;;;;;;;7.50;5.63;;;;;;;-141.84;84.80;20657.34;5025221;28;20325;-66
2023/07/20 02:45:59;;;;;;;7.35;6.32;;;;;;;-141.84;84.94;20639.06;5025525;28;20314;-66
2023/07/20 02:48:28;;;;;;;6.18;5.57;;;;;;;-141.84;85.13;20663.47;5025698;28;20296;-66
2023/07/20 02:50:56;;;;;;;6.63;6.10;;;;;;;-141.84;85.69;20689.88;5000153;28;20217;-67
2023/07/20 02:53:25;;;;;;;8.02;5.82;;;;;;;-141.84;84.74;20673.63;5005479;28;20581;-67
2023/07/20 02:55:54;;;;;;;6.10;5.50;;;;;;;-141.84;85.08;20620.78;5005602;28;20397;-67
2023/07/20 02:58:23;;;;;;;8.00;6.25;;;;;;;-141.84;85.55;20677.69;5005441;28;20230;-65
2023/07/20 03:00:52;;;;;;;6.47;5.80;;;;;;;-141.84;84.51;20679.72;5002528;28;20238;-67
2023/07/20 03:03:21;;;;;;;7.95;6.50;;;;;;;-141.84;83.41;20722.41;5005071;28;20211;-66
2023/07/20 03:05:54;;;;;;;8.43;6.60;;;;;;;-141.84;84.47;20630.94;5005631;28;20246;-66
2023/07/20 03:08:22;;;;;;;6.15;5.65;;;;;;;-141.84;85.50;20624.84;5007849;28;20562;-66
2023/07/20 03:10:51;;;;;;;7.00;6.03;;;;;;;-141.84;86.34;20614.66;5023086;28;20222;-67
2023/07/20 03:13:21;;;;;;;8.68;6.25;;;;;;;-141.84;87.02;20612.63;5010267;28;20943;-66
2023/07/20 03:15:49;;;;;;;8.88;6.45;;;;;;;-141.84;87.40;20632.97;5005240;28;20258;-65
2023/07/20 03:18:18;;;;;;;6.63;5.95;;;;;;;-141.84;86.74;20643.13;5005062;28;20722;-66
2023/07/20 03:20:48;;;;;;;8.77;6.97;;;;;;;-141.84;85.95;20626.88;5021502;28;20229;-66
2023/07/20 03:23:17;;;;;;;7.07;6.38;;;;;;;-141.84;86.32;20606.53;5020039;28;20721;-66
2023/07/20 03:25:45;;;;;;;6.38;5.88;;;;;;;-141.84;86.85;20616.69;5025034;28;20232;-66
2023/07/20 03:28:15;;;;;;;6.38;5.88;;;;;;;-141.84;87.10;20643.13;5024411;28;20701;-66
2023/07/20 03:30:45;;;;;;;12.45;6.72;;;;;;;-141.84;85.02;20651.25;5024616;28;20229;-66
2023/07/20 03:33:14;;;;;;;9.35;6.43;;;;;;;-141.84;84.86;20663.47;5015845;28;20218;-67
2023/07/20 03:35:44;;;;;;;7.78;6.32;;;;;;;-141.84;85.17;20683.78;5024979;28;20528;-65
2023/07/20 03:38:12;;;;;;;7.00;6.30;;;;;;;-141.84;85.06;20659.38;5024145;28;20226;-66
2023/07/20 03:40:49;;;;;;;7.75;5.78;;;;;;;-141.84;85.75;20657.34;5023784;28;20230;-67
2023/07/20 03:43:18;;;;;;;6.68;6.00;;;;;;;-141.84;86.15;20657.34;5021614;28;20321;-66
2023/07/20 03:45:48;;;;;;;7.55;6.38;;;;;;;-141.84;86.99;20624.84;5024691;28;20236;-65
2023/07/20 03:48:18;;;;;;;9.85;6.28;;;;;;;-141.84;86.28;20671.59;5024647;28;20749;-66
2023/07/20 03:50:46;;;;;;;7.00;6.30;;;;;;;-141.84;85.26;20663.47;5008272;28;20611;-66
2023/07/20 03:53:15;;;;;;;6.63;5.80;;;;;;;-141.84;85.50;20659.38;4996845;28;20246;-66
2023/07/20 03:55:46;;;;;;;8.20;7.13;;;;;;;-141.84;85.62;20679.72;5004471;28;20321;-67
2023/07/20 03:58:15;;;;;;;7.18;6.20;;;;;;;-141.84;84.01;20708.19;5004293;28;20230;-66
2023/07/20 04:00:48;;;;;;;6.60;6.00;;;;;;;-141.84;83.89;20712.25;5004225;28;20234;-66
2023/07/20 04:03:17;;;;;;;8.02;6.53;;;;;;;-141.84;84.69;20683.78;4998826;28;20209;-67
2023/07/20 04:05:46;;;;;;;8.27;6.20;;;;;;;-141.84;84.80;20734.59;5004500;28;20298;-66
2023/07/20 04:08:15;;;;;;;8.95;7.22;;;;;;;-141.84;83.91;20700.03;5007470;28;20260;-67
2023/07/20 04:10:45;;;;;;;7.30;6.00;;;;;;;-141.84;83.15;20720.38;5023969;28;20265;-67
2023/07/20 04:13:13;;;;;;;6.88;6.13;;;;;;;-141.84;82.93;20740.69;5015478;28;20264;-66
2023/07/20 04:15:42;;;;;;;7.40;6.13;;;;;;;-141.84;81.62;20767.13;5024202;28;20225;-65
2023/07/20 04:18:12;;;;;;;6.50;5.93;;;;;;;-141.84;82.23;20734.59;5023433;28;20626;-66
2023/07/20 04:20:41;;;;;;;8.02;6.40;;;;;;;-141.84;83.04;20722.41;5024114;28;20214;-65
2023/07/20 04:23:10;;;;;;;8.27;5.95;;;;;;;-141.84;82.80;20714.28;5016133;28;20740;-66
2023/07/20 04:25:41;;;;;;;6.00;5.47;;;;;;;-141.84;83.46;20700.03;5023144;28;20654;-67
2023/07/20 04:28:09;;;;;;;6.65;6.05;;;;;;;-141.84;84.31;20716.31;5023446;28;20226;-67
2023/07/20 04:30:40;;;;;;;7.60;6.53;;;;;;;-141.84;84.66;20702.09;5023437;28;20248;-68
2023/07/20 04:33:08;;;;;;;8.82;6.50;;;;;;;-141.84;84.82;20675.66;5015747;28;20206;-68
2023/07/20 04:35:51;;;;;;;8.68;7.07;;;;;;;-141.84;85.14;20702.09;5023908;28;20304;-67
2023/07/20 04:38:20;;;;;;;8.07;6.90;;;;;;;-141.84;85.52;20681.75;5023628;28;20334;-68
2023/07/20 04:40:50;;;;;;;7.93;6.80;;;;;;;-141.84;85.91;20606.53;5023594;28;20234;-68
2023/07/20 04:43:19;;;;;;;7.57;6.88;;;;;;;-141.84;86.13;20685.81;5020700;28;20327;-67
2023/07/20 04:45:48;;;;;;;7.97;6.65;;;;;;;-141.84;86.47;20671.59;5023499;28;20245;-67
2023/07/20 04:48:17;;;;;;;7.60;6.60;;;;;;;-141.84;84.48;20716.31;5023098;28;20206;-66
2023/07/20 04:50:47;;;;;;;7.63;6.82;;;;;;;-141.84;84.90;20702.09;5006340;28;20310;-67
2023/07/20 04:53:16;;;;;;;7.38;6.68;;;;;;;-141.84;84.91;20740.69;4997856;28;20253;-66
2023/07/20 04:55:51;;;;;;;8.52;6.10;;;;;;;-141.84;83.09;20742.75;5002906;28;20718;-67
2023/07/20 04:58:21;;;;;;;9.88;6.47;;;;;;;-141.84;82.19;20781.38;5003314;28;20234;-66
2023/07/20 05:00:51;;;;;;;7.95;5.40;;;;;;;-141.84;81.17;20769.16;5003091;28;20288;-67
2023/07/20 05:03:19;;;;;;;8.52;5.90;;;;;;;-141.84;80.93;20791.53;5003260;28;20305;-66
2023/07/20 05:05:49;;;;;;;8.13;6.05;;;;;;;-141.84;80.80;20805.75;5005754;28;20219;-66
2023/07/20 05:08:18;;;;;;;6.68;5.97;;;;;;;-141.84;78.89;20856.56;5003262;28;20321;-66
2023/07/20 05:10:46;;;;;;;7.32;5.50;;;;;;;-141.84;78.02;20905.38;5003091;28;20273;-66
2023/07/20 05:13:15;;;;;;;6.43;5.47;;;;;;;-141.84;78.97;20878.94;4995193;28;20349;-66
2023/07/20 05:15:44;;;;;;;5.88;5.35;;;;;;;-141.84;79.93;20822.03;5003152;28;20684;-66
2023/07/20 05:18:12;;;;;;;7.18;5.55;;;;;;;-141.84;80.02;20842.34;5003533;28;20281;-67
2023/07/20 05:20:41;;;;;;;7.30;5.10;;;;;;;-141.84;78.27;20883.00;5018660;28;20294;-67
2023/07/20 05:23:11;;;;;;;7.28;4.82;;;;;;;-141.84;77.81;20852.50;5015075;28;20280;-67
2023/07/20 05:25:39;;;;;;;7.93;5.00;;;;;;;-141.84;75.93;20919.59;5022565;28;20736;-66
2023/07/20 05:28:08;;;;;;;7.47;4.90;;;;;;;-141.84;77.40;20907.41;5022115;28;20695;-66
2023/07/20 05:30:36;;;;;;;8.80;6.13;;;;;;;-141.84;76.97;20901.31;5022426;28;20230;-67
2023/07/20 05:33:05;;;;;;;6.35;4.88;;;;;;;-141.84;77.24;20899.28;5014799;28;20238;-67
2023/07/20 05:35:33;;;;;;;8.00;5.40;;;;;;;-141.84;77.50;20893.16;5022133;28;20238;-65
2023/07/20 05:38:04;;;;;;;5.93;5.32;;;;;;;-141.84;76.09;20952.13;5022525;28;20713;-67
2023/07/20 05:40:33;;;;;;;7.05;5.10;;;;;;;-141.84;75.79;20972.47;5022191;28;20777;-70
2023/07/20 05:43:03;;;;;;;9.18;5.25;;;;;;;-141.84;77.14;20919.59;5013468;28;20744;-71
2023/07/20 05:45:31;;;;;;;5.25;4.85;;;;;;;-141.84;78.58;20860.66;5022755;28;20603;-69
2023/07/20 05:48:00;;;;;;;6.18;4.90;;;;;;;-141.84;77.32;20903.34;5022813;28;20747;-70
2023/07/20 05:50:28;;;;;;;5.53;4.78;;;;;;;-141.84;76.92;20901.31;5022648;28;20660;-70
2023/07/20 05:52:57;;;;;;;5.40;4.88;;;;;;;-141.84;76.51;20923.66;5013790;28;20222;-71
2023/07/20 05:55:25;;;;;;;5.22;4.70;;;;;;;-141.84;73.48;21041.56;5023090;28;20276;-70
2023/07/20 05:57:55;;;;;;;4.90;4.40;;;;;;;-141.84;74.53;21051.75;5022747;28;20225;-70
2023/07/20 06:00:26;;;;;;;7.13;5.53;;;;;;;-141.84;73.47;21074.09;5022849;28;20297;-71
2023/07/20 06:02:55;;;;;;;6.82;4.93;;;;;;;-141.84;73.92;21133.06;5018598;28;20803;-69
2023/07/20 06:05:24;;;;;;;6.28;4.50;;;;;;;-141.84;73.52;21167.63;5026248;28;20283;-71
2023/07/20 06:07:57;;;;;;;5.57;4.85;;;;;;;-141.84;70.85;21240.81;5025779;28;20237;-70
2023/07/20 06:10:26;;;;;;;5.40;4.55;;;;;;;-141.84;70.61;21285.53;5026196;28;20257;-70
2023/07/20 06:12:56;;;;;;;4.40;4.00;;;;;;;-141.84;68.86;21354.66;5018517;28;20234;-71
2023/07/20 06:15:29;;;;;;;4.20;3.80;;;;;;;-141.84;67.29;21385.16;5026260;28;20654;-69
2023/07/20 06:17:58;;;;;;;7.78;4.25;;;;;;;-141.84;66.24;21431.94;5026597;28;20653;-71
2023/07/20 06:20:27;;;;;;;4.18;3.72;;;;;;;-141.84;64.16;21497.00;5018343;28;20218;-71
2023/07/20 06:22:55;;;;;;;4.63;3.60;;;;;;;-141.84;64.26;21511.22;5017983;28;20230;-69
2023/07/20 06:25:24;;;;;;;5.55;4.13;;;;;;;-141.84;64.26;21517.31;5026235;28;20233;-70
2023/07/20 06:27:53;;;;;;;7.30;3.63;;;;;;;-141.84;64.34;21505.13;5025458;28;20218;-69
2023/07/20 06:30:23;;;;;;;4.72;2.80;;;;;;;-141.84;62.02;21545.78;5026037;28;20222;-69
2023/07/20 06:32:52;;;;;;;4.50;2.67;;;;;;;-141.84;61.49;21586.47;5023155;28;20202;-69
2023/07/20 06:35:21;;;;;;;4.72;2.40;;;;;;;-141.84;60.23;21621.03;5025112;28;20705;-69
2023/07/20 06:37:49;;;;;;;5.22;2.53;;;;;;;-141.84;60.41;21651.53;5025750;28;20343;-70
2023/07/20 06:40:18;;;;;;;4.43;3.10;;;;;;;-141.84;59.09;21572.22;5007347;28;20742;-70
2023/07/20 06:42:49;;;;;;;5.43;2.80;;;;;;;-141.84;61.36;21482.75;5016575;28;20329;-70
2023/07/20 06:45:22;;;;;;;5.72;3.20;;;;;;;-141.84;63.17;21354.66;5031230;28;20288;-70
2023/07/20 06:47:51;;;;;;;5.82;3.13;;;;;;;-141.84;64.78;21318.06;5026759;28;20205;-70
2023/07/20 06:50:19;;;;;;;3.95;3.10;;;;;;;-141.84;62.67;21379.06;5013153;28;20230;-73
2023/07/20 06:52:48;;;;;;;4.95;3.40;;;;;;;-141.84;63.39;21421.75;5006323;28;20223;-71
2023/07/20 06:55:17;;;;;;;5.80;3.20;;;;;;;-141.84;63.06;21436.00;5001298;28;20798;-71
2023/07/20 06:57:51;;;;;;;3.42;3.13;;;;;;;-141.84;62.25;21517.31;5007866;28;20218;-72
2023/07/20 07:00:20;;;;;;;5.18;2.80;;;;;;;-141.84;62.33;21592.56;5007089;28;20531;-70
2023/07/20 07:02:50;;;;;;;5.80;2.70;;;;;;;-141.84;59.04;21741.00;5006473;28;20235;-71
2023/07/20 07:05:19;;;;;;;3.63;2.90;;;;;;;-141.84;57.99;21877.22;5003490;28;20235;-73
2023/07/20 07:07:49;;;;;;;4.88;3.90;;;;;;;-141.84;55.44;21985.00;5005576;28;20253;-70
2023/07/20 07:10:18;;;;;;;5.32;3.40;;;;;;;-141.84;56.86;21936.19;5025231;28;20606;-71
2023/07/20 07:12:46;;;;;;;4.78;3.88;;;;;;;-141.84;56.97;21891.47;5031114;28;20248;-70
2023/07/20 07:15:15;;;;;;;3.30;3.08;;;;;;;-141.84;58.71;21738.97;5024053;28;20269;-70
2023/07/20 07:17:44;;;;;;;7.38;3.53;;;;;;;-141.84;59.97;21675.94;5031402;28;20590;-69
2023/07/20 07:20:14;;;;;;;4.85;3.30;;;;;;;-141.84;60.00;21657.63;5016121;28;20714;-70
2023/07/20 07:22:46;;;;;;;8.50;4.00;;;;;;;-141.84;60.47;21659.66;5007300;28;20234;-70
2023/07/20 07:25:15;;;;;;;4.55;3.28;;;;;;;-141.84;59.35;21730.81;4997868;28;20265;-71
2023/07/20 07:27:51;;;;;;;3.92;3.10;;;;;;;-141.84;59.88;21655.59;5004466;28;20910;-71
2023/07/20 07:30:19;;;;;;;3.08;2.80;;;;;;;-141.84;60.95;21614.94;5005262;28;20242;-70
2023/07/20 07:32:48;;;;;;;3.72;3.22;;;;;;;-141.84;61.54;21564.09;5005229;28;20237;-71
2023/07/20 07:35:18;;;;;;;3.65;3.15;;;;;;;-141.84;61.46;21535.63;5010345;28;20252;-71
2023/07/20 07:37:47;;;;;;;3.53;2.83;;;;;;;-141.84;61.30;21560.03;5024408;28;20621;-72
2023/07/20 07:40:19;;;;;;;3.78;3.55;;;;;;;-141.84;60.47;21525.47;5027247;28;20316;-70
2023/07/20 07:42:47;;;;;;;3.67;3.38;;;;;;;-141.84;60.30;21600.69;5023737;28;20721;-70
2023/07/20 07:45:16;;;;;;;3.97;3.67;;;;;;;-141.84;60.97;21633.22;5018283;28;20202;-71
2023/07/20 07:47:45;;;;;;;3.85;3.42;;;;;;;-141.84;58.92;21787.75;5004845;28;20698;-72
2023/07/20 07:50:13;;;;;;;7.75;4.10;;;;;;;-141.84;57.25;21844.69;5015595;28;20233;-71
2023/07/20 07:52:43;;;;;;;7.45;3.80;;;;;;;-141.84;58.46;21759.28;5023674;28;20325;-71
2023/07/20 07:55:12;;;;;;;6.40;3.83;;;;;;;-141.84;59.14;21696.25;4998990;28;20234;-72
2023/07/20 07:57:40;;;;;;;4.65;3.20;;;;;;;-141.84;60.03;21604.75;5004862;28;20292;-70
2023/07/20 08:00:14;;;;;;;6.25;3.65;;;;;;;-141.84;59.87;21659.66;5004738;28;20258;-69
2023/07/20 08:02:43;;;;;;;4.78;3.10;;;;;;;-141.84;59.36;21718.63;5024084;28;20210;-70
2023/07/20 08:05:11;;;;;;;3.85;2.88;;;;;;;-141.84;58.93;21639.31;5016438;28;20321;-70
2023/07/20 08:07:42;;;;;;;3.50;3.20;;;;;;;-141.84;58.83;21692.19;5024424;28;20317;-72
2023/07/20 08:10:11;;;;;;;4.40;3.20;;;;;;;-141.84;57.61;21838.59;5023869;28;20233;-70
2023/07/20 08:12:39;;;;;;;5.75;3.90;;;;;;;-141.84;56.61;21887.41;5023165;28;20308;-71
2023/07/20 08:15:11;;;;;;;6.30;3.38;;;;;;;-141.84;56.11;21928.06;5016086;28;20237;-70
2023/07/20 08:17:40;;;;;;;3.70;3.38;;;;;;;-141.84;55.51;21938.22;5024888;28;20304;-71
2023/07/20 08:20:12;;;;;;;4.82;3.42;;;;;;;-141.84;56.18;21976.88;5023832;28;20586;-70
2023/07/20 08:22:41;;;;;;;4.68;4.03;;;;;;;-141.84;53.84;22082.63;5024447;28;20226;-71
2023/07/20 08:25:10;;;;;;;3.53;3.22;;;;;;;-141.84;53.60;22001.28;5016312;28;20284;-72
2023/07/20 08:27:40;;;;;;;4.70;3.63;;;;;;;-141.84;54.85;21956.53;5024720;28;20314;-71
2023/07/20 08:30:10;;;;;;;4.10;3.70;;;;;;;-141.84;55.45;21932.13;5023998;28;20685;-71
2023/07/20 08:32:39;;;;;;;3.97;3.55;;;;;;;-141.84;54.07;22009.41;5024869;28;20358;-70
2023/07/20 08:35:08;;;;;;;3.63;3.35;;;;;;;-141.84;55.40;21928.06;5016147;28;20760;-70
2023/07/20 08:37:37;;;;;;;4.40;3.83;;;;;;;-141.84;55.59;21926.03;5023398;28;20607;-69
2023/07/20 08:40:09;;;;;;;4.75;3.90;;;;;;;-141.84;56.34;21887.41;5024028;28;20249;-69
2023/07/20 08:42:39;;;;;;;3.90;3.60;;;;;;;-141.84;56.25;21867.06;5014495;28;20578;-70
2023/07/20 08:45:10;;;;;;;4.45;3.38;;;;;;;-141.84;55.87;21883.31;4995824;28;20225;-70
2023/07/20 08:47:39;;;;;;;5.05;4.05;;;;;;;-141.84;55.11;21895.53;5004142;28;20217;-71
2023/07/20 08:50:10;;;;;;;4.65;4.22;;;;;;;-141.84;54.97;21873.16;5007754;28;20289;-70
2023/07/20 08:52:39;;;;;;;3.92;3.63;;;;;;;-141.84;54.81;21891.47;5003393;28;20234;-72
2023/07/20 08:55:09;;;;;;;3.28;3.08;;;;;;;-141.84;55.56;21887.41;4995682;28;20230;-71
2023/07/20 08:57:39;;;;;;;4.97;3.70;;;;;;;-141.84;55.30;21928.06;5003956;28;20280;-70
2023/07/20 09:00:12;;;;;;;3.67;3.35;;;;;;;-141.84;55.03;21993.13;5003422;28;20203;-70
2023/07/20 09:02:43;;;;;;;4.80;4.40;;;;;;;-141.84;54.14;22090.75;5024116;28;20238;-71
2023/07/20 09:05:13;;;;;;;3.83;3.53;;;;;;;-141.84;52.80;22208.69;5015634;28;20332;-70
2023/07/20 09:07:43;;;;;;;4.45;4.05;;;;;;;-141.84;51.65;22340.88;5022921;28;20233;-71
2023/07/20 09:10:13;;;;;;;3.88;3.55;;;;;;;-141.84;49.41;22503.56;5022341;28;20312;-70
2023/07/20 09:12:43;;;;;;;6.07;3.75;;;;;;;-141.84;50.06;22424.25;5023141;28;20227;-72
2023/07/20 09:15:13;;;;;;;3.97;3.67;;;;;;;-141.84;50.05;22383.59;5015264;28;20299;-70
2023/07/20 09:17:47;;;;;;;4.00;3.70;;;;;;;-141.84;50.86;22224.97;5023372;28;20525;-71
2023/07/20 09:20:17;;;;;;;5.13;4.70;;;;;;;-141.84;52.40;22080.56;5023050;28;20720;-72
2023/07/20 09:22:52;;;;;;;4.00;3.70;;;;;;;-141.84;54.08;21891.47;5023113;28;20639;-70
2023/07/20 09:25:23;;;;;;;4.82;3.90;;;;;;;-141.84;54.91;21793.84;5022939;28;20229;-71
2023/07/20 09:27:55;;;;;;;3.55;3.30;;;;;;;-141.84;55.59;21777.59;5014666;28;20281;-72
2023/07/20 09:30:27;;;;;;;4.10;3.70;;;;;;;-141.84;55.86;21726.75;5002107;28;20206;-71
2023/07/20 09:32:58;;;;;;;6.05;4.40;;;;;;;-141.84;56.49;21745.06;4996500;28;20265;-71
2023/07/20 09:35:27;;;;;;;3.90;3.60;;;;;;;-141.84;57.64;21720.66;5014493;28;20600;-71
2023/07/20 09:38:10;;;;;;;4.15;3.80;;;;;;;-141.84;58.56;21643.38;5022592;28;20248;-70
2023/07/20 09:40:43;;;;;;;4.68;4.28;;;;;;;-141.84;61.86;21531.56;5023984;28;20374;-71
2023/07/20 09:43:16;;;;;;;5.55;5.07;;;;;;;-141.84;65.32;21474.63;5013935;28;20234;-71
2023/07/20 09:45:48;;;;;;;5.82;5.32;;;;;;;-141.84;67.20;21417.69;5022994;28;20245;-70
2023/07/20 09:48:24;;;;;;;6.60;6.00;;;;;;;-141.84;69.50;21409.56;5005476;28;20242;-72
2023/07/20 09:50:57;;;;;;;7.28;6.57;;;;;;;-141.84;71.23;21348.56;5012798;28;20296;-70
2023/07/20 09:53:26;;;;;;;8.27;7.47;;;;;;;-141.84;72.37;21287.56;5022251;28;20676;-70
2023/07/20 09:55:56;;;;;;;7.25;6.55;;;;;;;-141.84;73.25;21210.31;5022289;28;20242;-70
2023/07/20 09:58:26;;;;;;;8.02;7.43;;;;;;;-141.84;74.68;21192.03;5023021;28;20234;-70
2023/07/20 10:01:02;;;;;;;7.65;7.05;;;;;;;-141.84;74.73;21151.34;5015694;28;20234;-70
2023/07/20 10:03:32;;;;;;;7.07;6.47;;;;;;;-141.84;74.93;21102.56;5022758;28;20233;-70
2023/07/20 10:06:07;;;;;;;7.40;5.88;;;;;;;-141.84;73.92;21157.47;5022740;28;20230;-70
2023/07/20 10:08:40;;;;;;;7.35;6.65;;;;;;;-141.84;73.37;21173.72;5021965;28;20595;-70
2023/07/20 10:11:16;;;;;;;7.75;7.00;;;;;;;-141.84;74.15;21179.81;5015658;28;20702;-70
2023/07/20 10:13:47;;;;;;;7.55;6.93;;;;;;;-141.84;71.92;21196.09;5022038;28;20332;-71
2023/07/20 10:16:23;;;;;;;7.95;7.25;;;;;;;-141.84;72.76;21175.75;5029613;28;20218;-71
2023/07/20 10:19:00;;;;;;;7.75;6.95;;;;;;;-141.84;72.29;21248.94;5030587;28;20232;-71
2023/07/20 10:21:30;;;;;;;5.28;4.88;;;;;;;-141.84;68.50;21370.94;5006059;28;20245;-71
2023/07/20 10:24:03;;;;;;;4.75;4.35;;;;;;;-141.84;67.97;21383.13;5015021;28;20289;-71
2023/07/20 10:26:33;;;;;;;4.13;3.83;;;;;;;-141.84;66.38;21419.72;5002962;28;20230;-71
2023/07/20 10:29:06;;;;;;;3.80;3.50;;;;;;;-141.84;66.78;21433.97;5011923;28;20233;-70
2023/07/20 10:31:36;;;;;;;4.50;4.13;;;;;;;-141.84;66.38;21405.50;5021833;28;20586;-72
2023/07/20 10:34:05;;;;;;;3.95;3.65;;;;;;;-141.84;67.38;21397.38;5021926;28;20233;-69
2023/07/20 10:36:44;;;;;;;4.80;4.32;;;;;;;-141.84;65.53;21431.94;5001670;28;20305;-71
2023/07/20 10:39:24;;;;;;;4.78;4.00;;;;;;;-141.84;65.31;21515.28;4995148;28;20915;-69
2023/07/20 10:42:02;;;;;;;5.05;3.85;;;;;;;-141.84;63.68;21637.28;5002015;28;20207;-69
2023/07/20 10:44:32;;;;;;;4.10;3.55;;;;;;;-141.84;62.53;21625.09;5001732;28;20261;-71
2023/07/20 10:47:02;;;;;;;3.55;3.25;;;;;;;-141.84;62.38;21677.97;4994711;28;20234;-68
2023/07/20 10:49:35;;;;;;;3.50;3.20;;;;;;;-141.84;62.55;21684.06;5010946;28;20335;-71
2023/07/20 10:52:07;;;;;;;4.43;3.50;;;;;;;-141.84;61.34;21680.00;5026287;28;20714;-72
2023/07/20 10:54:51;;;;;;;3.60;3.38;;;;;;;-141.84;61.81;21633.22;5025700;28;20600;-69
2023/07/20 10:57:26;;;;;;;4.32;3.28;;;;;;;-141.84;63.52;21564.09;5026631;28;20300;-70
2023/07/20 11:00:12;;;;;;;4.55;3.42;;;;;;;-141.84;63.61;21533.59;5026250;28;20209;-71
2023/07/20 11:02:49;;;;;;;3.50;3.20;;;;;;;-141.84;62.67;21639.31;5026088;28;20232;-70
2023/07/20 11:05:36;;;;;;;3.08;2.88;;;;;;;-141.84;61.05;21694.22;5025667;28;20246;-71
2023/07/20 11:08:07;;;;;;;3.08;2.88;;;;;;;-141.84;62.25;21741.00;5024577;28;20230;-71
2023/07/20 11:10:36;;;;;;;2.95;2.70;;;;;;;-141.84;61.03;21787.75;5025081;28;20324;-71
2023/07/20 11:13:24;;;;;;;4.05;2.67;;;;;;;-141.84;58.61;21915.88;5017856;28;20316;-72
2023/07/20 11:16:05;;;;;;;2.35;2.15;;;;;;;-141.84;58.59;21903.66;5025812;28;20305;-71
2023/07/20 11:18:39;;;;;;;2.47;2.22;;;;;;;-141.84;59.27;22021.59;5024931;28;20385;-70
2023/07/20 11:21:10;;;;;;;2.83;2.50;;;;;;;-141.84;56.75;22178.19;5002925;28;20214;-70
2023/07/20 11:23:41;;;;;;;2.88;2.55;;;;;;;-141.84;55.26;22125.31;5005835;28;20538;-72
2023/07/20 11:26:11;;;;;;;3.15;2.33;;;;;;;-141.84;56.87;22107.00;5005236;28;20241;-71
2023/07/20 11:28:41;;;;;;;3.08;2.70;;;;;;;-141.84;56.71;22076.50;5004829;28;20239;-72
2023/07/20 11:31:09;;;;;;;2.20;2.00;;;;;;;-141.84;56.29;21989.06;5004429;28;20236;-71